sensor_id;sensor_type;location;lat;lon;timestamp;P1;durP1;ratioP1;P2;durP2;ratioP2
55913;SDS011;58179;48.776;9.124;2022-08-02T00:01:58;5.18;;;2.80;;
55913;SDS011;58179;48.776;9.124;2022-08-02T00:04:24;4.80;;;2.90;;
55913;SDS011;58179;48.776;9.124;2022-08-02T00:06:51;3.08;;;2.47;;
55913;SDS011;58179;48.776;9.124;2022-08-02T00:09:17;5.00;;;2.45;;
55913;SDS011;58179;48.776;9.124;2022-08-02T00:11:43;3.75;;;2.40;;
55913;SDS011;58179;48.776;9.124;2022-08-02T00:14:09;5.07;;;2.47;;
55913;SDS011;58179;48.776;9.124;2022-08-02T00:16:35;4.32;;;2.53;;
55913;SDS011;58179;48.776;9.124;2022-08-02T00:19:01;6.32;;;2.75;;
55913;SDS011;58179;48.776;9.124;2022-08-02T00:21:27;5.25;;;2.90;;
55913;SDS011;58179;48.776;9.124;2022-08-02T00:23:55;6.97;;;3.03;;
55913;SDS011;58179;48.776;9.124;2022-08-02T00:26:21;7.80;;;2.90;;
55913;SDS011;58179;48.776;9.124;2022-08-02T00:28:47;5.13;;;2.72;;
55913;SDS011;58179;48.776;9.124;2022-08-02T00:31:13;6.28;;;3.00;;
55913;SDS011;58179;48.776;9.124;2022-08-02T00:33:39;4.28;;;3.00;;
55913;SDS011;58179;48.776;9.124;2022-08-02T00:36:05;5.40;;;3.08;;
55913;SDS011;58179;48.776;9.124;2022-08-02T00:38:31;4.80;;;3.22;;
55913;SDS011;58179;48.776;9.124;2022-08-02T00:40:59;5.55;;;3.30;;
55913;SDS011;58179;48.776;9.124;2022-08-02T00:43:25;4.72;;;2.70;;
55913;SDS011;58179;48.776;9.124;2022-08-02T00:45:51;5.38;;;3.22;;
55913;SDS011;58179;48.776;9.124;2022-08-02T00:48:17;5.72;;;3.22;;
55913;SDS011;58179;48.776;9.124;2022-08-02T00:50:43;5.20;;;3.17;;
55913;SDS011;58179;48.776;9.124;2022-08-02T00:53:09;4.75;;;2.90;;
55913;SDS011;58179;48.776;9.124;2022-08-02T00:55:35;7.68;;;3.00;;
55913;SDS011;58179;48.776;9.124;2022-08-02T00:58:04;4.82;;;2.85;;
55913;SDS011;58179;48.776;9.124;2022-08-02T01:00:30;4.22;;;2.90;;
55913;SDS011;58179;48.776;9.124;2022-08-02T01:02:56;5.63;;;2.80;;
55913;SDS011;58179;48.776;9.124;2022-08-02T01:05:22;4.75;;;3.00;;
55913;SDS011;58179;48.776;9.124;2022-08-02T01:07:48;3.78;;;2.67;;
55913;SDS011;58179;48.776;9.124;2022-08-02T01:10:14;3.35;;;2.60;;
55913;SDS011;58179;48.776;9.124;2022-08-02T01:12:40;4.72;;;2.83;;
55913;SDS011;58179;48.776;9.124;2022-08-02T01:15:08;3.60;;;2.50;;
55913;SDS011;58179;48.776;9.124;2022-08-02T01:17:37;4.70;;;2.67;;
55913;SDS011;58179;48.776;9.124;2022-08-02T01:20:15;3.08;;;2.33;;
55913;SDS011;58179;48.776;9.124;2022-08-02T01:23:04;4.32;;;2.83;;
55913;SDS011;58179;48.776;9.124;2022-08-02T01:25:52;4.00;;;2.40;;
55913;SDS011;58179;48.776;9.124;2022-08-02T01:28:35;4.53;;;2.67;;
55913;SDS011;58179;48.776;9.124;2022-08-02T01:31:07;4.30;;;2.60;;
55913;SDS011;58179;48.776;9.124;2022-08-02T01:33:44;5.32;;;2.83;;
55913;SDS011;58179;48.776;9.124;2022-08-02T01:36:21;4.70;;;2.58;;
55913;SDS011;58179;48.776;9.124;2022-08-02T01:38:52;4.30;;;2.60;;
55913;SDS011;58179;48.776;9.124;2022-08-02T01:41:19;5.88;;;3.05;;
55913;SDS011;58179;48.776;9.124;2022-08-02T01:43:50;4.57;;;2.53;;
55913;SDS011;58179;48.776;9.124;2022-08-02T01:46:20;3.63;;;2.42;;
55913;SDS011;58179;48.776;9.124;2022-08-02T01:48:48;3.20;;;2.22;;
55913;SDS011;58179;48.776;9.124;2022-08-02T01:51:17;3.50;;;2.50;;
55913;SDS011;58179;48.776;9.124;2022-08-02T01:54:05;2.33;;;2.13;;
55913;SDS011;58179;48.776;9.124;2022-08-02T01:56:33;3.90;;;2.20;;
55913;SDS011;58179;48.776;9.124;2022-08-02T01:59:01;4.70;;;2.67;;
55913;SDS011;58179;48.776;9.124;2022-08-02T02:01:28;5.00;;;2.33;;
55913;SDS011;58179;48.776;9.124;2022-08-02T02:03:56;2.87;;;2.13;;
55913;SDS011;58179;48.776;9.124;2022-08-02T02:06:23;4.40;;;2.50;;
55913;SDS011;58179;48.776;9.124;2022-08-02T02:08:51;5.10;;;2.47;;
55913;SDS011;58179;48.776;9.124;2022-08-02T02:11:17;3.92;;;2.30;;
55913;SDS011;58179;48.776;9.124;2022-08-02T02:13:45;4.00;;;2.80;;
55913;SDS011;58179;48.776;9.124;2022-08-02T02:16:14;4.68;;;2.60;;
55913;SDS011;58179;48.776;9.124;2022-08-02T02:18:41;3.03;;;2.20;;
55913;SDS011;58179;48.776;9.124;2022-08-02T02:21:08;3.45;;;2.13;;
55913;SDS011;58179;48.776;9.124;2022-08-02T02:23:35;4.30;;;2.50;;
55913;SDS011;58179;48.776;9.124;2022-08-02T02:26:02;5.80;;;2.45;;
55913;SDS011;58179;48.776;9.124;2022-08-02T02:28:29;6.28;;;2.50;;
55913;SDS011;58179;48.776;9.124;2022-08-02T02:30:57;4.85;;;2.28;;
55913;SDS011;58179;48.776;9.124;2022-08-02T02:33:31;4.38;;;2.28;;
55913;SDS011;58179;48.776;9.124;2022-08-02T02:36:01;3.25;;;2.20;;
55913;SDS011;58179;48.776;9.124;2022-08-02T02:38:30;4.43;;;2.20;;
55913;SDS011;58179;48.776;9.124;2022-08-02T02:40:57;5.70;;;2.37;;
55913;SDS011;58179;48.776;9.124;2022-08-02T02:43:27;3.13;;;2.25;;
55913;SDS011;58179;48.776;9.124;2022-08-02T02:45:55;3.63;;;2.05;;
55913;SDS011;58179;48.776;9.124;2022-08-02T02:48:21;4.95;;;2.40;;
55913;SDS011;58179;48.776;9.124;2022-08-02T02:50:50;3.00;;;1.90;;
55913;SDS011;58179;48.776;9.124;2022-08-02T02:53:18;7.13;;;2.38;;
55913;SDS011;58179;48.776;9.124;2022-08-02T02:55:45;2.37;;;2.10;;
55913;SDS011;58179;48.776;9.124;2022-08-02T02:58:12;3.55;;;2.15;;
55913;SDS011;58179;48.776;9.124;2022-08-02T03:00:38;5.60;;;2.53;;
55913;SDS011;58179;48.776;9.124;2022-08-02T03:03:24;2.88;;;2.00;;
55913;SDS011;58179;48.776;9.124;2022-08-02T03:05:52;2.53;;;2.15;;
55913;SDS011;58179;48.776;9.124;2022-08-02T03:08:17;4.10;;;2.13;;
55913;SDS011;58179;48.776;9.124;2022-08-02T03:10:44;3.33;;;2.30;;
55913;SDS011;58179;48.776;9.124;2022-08-02T03:13:11;3.03;;;2.08;;
55913;SDS011;58179;48.776;9.124;2022-08-02T03:15:37;3.78;;;1.98;;
55913;SDS011;58179;48.776;9.124;2022-08-02T03:18:05;2.35;;;1.92;;
55913;SDS011;58179;48.776;9.124;2022-08-02T03:20:34;2.45;;;2.10;;
55913;SDS011;58179;48.776;9.124;2022-08-02T03:23:01;2.57;;;1.90;;
55913;SDS011;58179;48.776;9.124;2022-08-02T03:25:27;2.95;;;1.92;;
55913;SDS011;58179;48.776;9.124;2022-08-02T03:27:53;3.13;;;2.30;;
55913;SDS011;58179;48.776;9.124;2022-08-02T03:30:19;2.72;;;2.20;;
55913;SDS011;58179;48.776;9.124;2022-08-02T03:32:48;3.00;;;2.05;;
55913;SDS011;58179;48.776;9.124;2022-08-02T03:35:15;2.73;;;1.70;;
55913;SDS011;58179;48.776;9.124;2022-08-02T03:37:42;3.97;;;2.15;;
55913;SDS011;58179;48.776;9.124;2022-08-02T03:40:11;4.72;;;2.10;;
55913;SDS011;58179;48.776;9.124;2022-08-02T03:42:38;2.22;;;1.98;;
55913;SDS011;58179;48.776;9.124;2022-08-02T03:45:06;3.10;;;2.05;;
55913;SDS011;58179;48.776;9.124;2022-08-02T03:47:36;3.83;;;2.10;;
55913;SDS011;58179;48.776;9.124;2022-08-02T03:50:04;3.35;;;2.63;;
55913;SDS011;58179;48.776;9.124;2022-08-02T03:52:31;2.63;;;2.13;;
55913;SDS011;58179;48.776;9.124;2022-08-02T03:54:58;4.20;;;2.25;;
55913;SDS011;58179;48.776;9.124;2022-08-02T03:57:25;3.67;;;2.28;;
55913;SDS011;58179;48.776;9.124;2022-08-02T03:59:51;3.10;;;1.90;;
55913;SDS011;58179;48.776;9.124;2022-08-02T04:02:17;4.03;;;2.42;;
55913;SDS011;58179;48.776;9.124;2022-08-02T04:04:43;5.80;;;2.50;;
55913;SDS011;58179;48.776;9.124;2022-08-02T04:07:09;2.40;;;2.20;;
55913;SDS011;58179;48.776;9.124;2022-08-02T04:09:35;4.30;;;2.10;;
55913;SDS011;58179;48.776;9.124;2022-08-02T04:12:01;2.78;;;2.13;;
55913;SDS011;58179;48.776;9.124;2022-08-02T04:14:29;2.38;;;2.17;;
55913;SDS011;58179;48.776;9.124;2022-08-02T04:16:57;2.77;;;2.33;;
55913;SDS011;58179;48.776;9.124;2022-08-02T04:19:30;3.35;;;2.50;;
55913;SDS011;58179;48.776;9.124;2022-08-02T04:22:03;2.42;;;2.13;;
55913;SDS011;58179;48.776;9.124;2022-08-02T04:24:33;2.58;;;2.38;;
55913;SDS011;58179;48.776;9.124;2022-08-02T04:27:05;3.35;;;2.28;;
55913;SDS011;58179;48.776;9.124;2022-08-02T04:29:35;5.22;;;2.40;;
55913;SDS011;58179;48.776;9.124;2022-08-02T04:32:02;2.65;;;2.00;;
55913;SDS011;58179;48.776;9.124;2022-08-02T04:34:30;4.50;;;2.08;;
55913;SDS011;58179;48.776;9.124;2022-08-02T04:36:57;3.47;;;2.40;;
55913;SDS011;58179;48.776;9.124;2022-08-02T04:39:24;3.58;;;2.10;;
55913;SDS011;58179;48.776;9.124;2022-08-02T04:41:50;2.80;;;2.00;;
55913;SDS011;58179;48.776;9.124;2022-08-02T04:44:16;2.50;;;2.10;;
55913;SDS011;58179;48.776;9.124;2022-08-02T04:46:43;3.90;;;1.98;;
55913;SDS011;58179;48.776;9.124;2022-08-02T04:49:10;2.95;;;2.13;;
55913;SDS011;58179;48.776;9.124;2022-08-02T04:51:36;2.33;;;1.95;;
55913;SDS011;58179;48.776;9.124;2022-08-02T04:54:03;3.47;;;2.00;;
55913;SDS011;58179;48.776;9.124;2022-08-02T04:56:30;2.03;;;1.65;;
55913;SDS011;58179;48.776;9.124;2022-08-02T04:58:56;2.53;;;1.90;;
55913;SDS011;58179;48.776;9.124;2022-08-02T05:01:22;2.40;;;1.90;;
55913;SDS011;58179;48.776;9.124;2022-08-02T05:03:49;2.72;;;1.90;;
55913;SDS011;58179;48.776;9.124;2022-08-02T05:06:16;2.55;;;1.70;;
55913;SDS011;58179;48.776;9.124;2022-08-02T05:08:43;2.40;;;1.88;;
55913;SDS011;58179;48.776;9.124;2022-08-02T05:11:09;2.30;;;1.90;;
55913;SDS011;58179;48.776;9.124;2022-08-02T05:13:35;2.60;;;1.80;;
55913;SDS011;58179;48.776;9.124;2022-08-02T05:16:01;2.80;;;2.05;;
55913;SDS011;58179;48.776;9.124;2022-08-02T05:18:28;1.92;;;1.70;;
55913;SDS011;58179;48.776;9.124;2022-08-02T05:20:57;3.17;;;2.20;;
55913;SDS011;58179;48.776;9.124;2022-08-02T05:23:23;3.08;;;2.20;;
55913;SDS011;58179;48.776;9.124;2022-08-02T05:25:49;4.60;;;2.23;;
55913;SDS011;58179;48.776;9.124;2022-08-02T05:28:15;2.78;;;2.20;;
55913;SDS011;58179;48.776;9.124;2022-08-02T05:30:41;2.38;;;2.17;;
55913;SDS011;58179;48.776;9.124;2022-08-02T05:33:07;2.40;;;1.85;;
55913;SDS011;58179;48.776;9.124;2022-08-02T05:35:33;2.90;;;2.08;;
55913;SDS011;58179;48.776;9.124;2022-08-02T05:38:00;3.30;;;2.20;;
55913;SDS011;58179;48.776;9.124;2022-08-02T05:40:26;4.05;;;2.10;;
55913;SDS011;58179;48.776;9.124;2022-08-02T05:42:52;3.40;;;2.53;;
55913;SDS011;58179;48.776;9.124;2022-08-02T05:45:18;3.33;;;2.20;;
55913;SDS011;58179;48.776;9.124;2022-08-02T05:47:44;2.97;;;1.97;;
55913;SDS011;58179;48.776;9.124;2022-08-02T05:50:10;4.90;;;2.08;;
55913;SDS011;58179;48.776;9.124;2022-08-02T05:52:48;3.50;;;2.15;;
55913;SDS011;58179;48.776;9.124;2022-08-02T05:55:23;2.90;;;2.30;;
55913;SDS011;58179;48.776;9.124;2022-08-02T05:57:54;2.40;;;2.17;;
55913;SDS011;58179;48.776;9.124;2022-08-02T06:00:27;3.07;;;2.23;;
55913;SDS011;58179;48.776;9.124;2022-08-02T06:03:03;4.10;;;2.60;;
55913;SDS011;58179;48.776;9.124;2022-08-02T06:05:49;3.95;;;2.50;;
55913;SDS011;58179;48.776;9.124;2022-08-02T06:08:20;3.92;;;2.90;;
55913;SDS011;58179;48.776;9.124;2022-08-02T06:10:56;3.80;;;2.63;;
55913;SDS011;58179;48.776;9.124;2022-08-02T06:13:26;3.65;;;2.75;;
55913;SDS011;58179;48.776;9.124;2022-08-02T06:15:53;3.60;;;2.60;;
55913;SDS011;58179;48.776;9.124;2022-08-02T06:18:23;2.58;;;2.22;;
55913;SDS011;58179;48.776;9.124;2022-08-02T06:20:51;3.78;;;2.50;;
55913;SDS011;58179;48.776;9.124;2022-08-02T06:23:20;3.60;;;2.83;;
55913;SDS011;58179;48.776;9.124;2022-08-02T06:25:47;4.80;;;2.60;;
55913;SDS011;58179;48.776;9.124;2022-08-02T06:28:18;3.63;;;2.35;;
55913;SDS011;58179;48.776;9.124;2022-08-02T06:30:45;3.50;;;2.40;;
55913;SDS011;58179;48.776;9.124;2022-08-02T06:33:11;3.70;;;2.60;;
55913;SDS011;58179;48.776;9.124;2022-08-02T06:35:39;2.35;;;2.15;;
55913;SDS011;58179;48.776;9.124;2022-08-02T06:38:11;3.72;;;2.60;;
55913;SDS011;58179;48.776;9.124;2022-08-02T06:40:45;5.47;;;3.25;;
55913;SDS011;58179;48.776;9.124;2022-08-02T06:43:22;4.32;;;3.10;;
55913;SDS011;58179;48.776;9.124;2022-08-02T06:45:55;6.00;;;3.00;;
55913;SDS011;58179;48.776;9.124;2022-08-02T06:48:21;6.03;;;3.20;;
55913;SDS011;58179;48.776;9.124;2022-08-02T06:50:47;6.30;;;3.10;;
55913;SDS011;58179;48.776;9.124;2022-08-02T06:53:13;6.32;;;3.00;;
55913;SDS011;58179;48.776;9.124;2022-08-02T06:55:39;5.93;;;3.13;;
55913;SDS011;58179;48.776;9.124;2022-08-02T06:58:05;5.20;;;4.00;;
55913;SDS011;58179;48.776;9.124;2022-08-02T07:00:32;5.50;;;3.13;;
55913;SDS011;58179;48.776;9.124;2022-08-02T07:02:58;4.45;;;3.78;;
55913;SDS011;58179;48.776;9.124;2022-08-02T07:05:24;5.65;;;3.38;;
55913;SDS011;58179;48.776;9.124;2022-08-02T07:07:50;4.68;;;3.33;;
55913;SDS011;58179;48.776;9.124;2022-08-02T07:10:16;6.20;;;3.00;;
55913;SDS011;58179;48.776;9.124;2022-08-02T07:12:42;6.13;;;3.10;;
55913;SDS011;58179;48.776;9.124;2022-08-02T07:15:08;4.30;;;2.60;;
55913;SDS011;58179;48.776;9.124;2022-08-02T07:17:37;5.35;;;3.42;;
55913;SDS011;58179;48.776;9.124;2022-08-02T07:20:04;8.35;;;3.25;;
55913;SDS011;58179;48.776;9.124;2022-08-02T07:22:33;5.82;;;3.15;;
55913;SDS011;58179;48.776;9.124;2022-08-02T07:25:00;5.85;;;3.20;;
55913;SDS011;58179;48.776;9.124;2022-08-02T07:27:27;3.70;;;2.80;;
55913;SDS011;58179;48.776;9.124;2022-08-02T07:29:53;4.90;;;2.70;;
55913;SDS011;58179;48.776;9.124;2022-08-02T07:32:21;3.35;;;2.58;;
55913;SDS011;58179;48.776;9.124;2022-08-02T07:34:51;3.42;;;2.55;;
55913;SDS011;58179;48.776;9.124;2022-08-02T07:37:20;4.57;;;3.37;;
55913;SDS011;58179;48.776;9.124;2022-08-02T07:39:48;4.78;;;2.70;;
55913;SDS011;58179;48.776;9.124;2022-08-02T07:42:14;6.75;;;3.10;;
55913;SDS011;58179;48.776;9.124;2022-08-02T07:44:40;6.00;;;3.42;;
55913;SDS011;58179;48.776;9.124;2022-08-02T07:47:07;3.73;;;2.97;;
55913;SDS011;58179;48.776;9.124;2022-08-02T07:49:33;7.05;;;2.72;;
55913;SDS011;58179;48.776;9.124;2022-08-02T07:52:00;6.13;;;3.10;;
55913;SDS011;58179;48.776;9.124;2022-08-02T07:54:26;3.78;;;2.72;;
55913;SDS011;58179;48.776;9.124;2022-08-02T07:56:52;3.58;;;2.75;;
55913;SDS011;58179;48.776;9.124;2022-08-02T07:59:18;6.78;;;3.35;;
55913;SDS011;58179;48.776;9.124;2022-08-02T08:01:45;7.15;;;3.55;;
55913;SDS011;58179;48.776;9.124;2022-08-02T08:04:11;5.40;;;2.42;;
55913;SDS011;58179;48.776;9.124;2022-08-02T08:06:37;7.20;;;2.83;;
55913;SDS011;58179;48.776;9.124;2022-08-02T08:09:04;4.33;;;3.60;;
55913;SDS011;58179;48.776;9.124;2022-08-02T08:11:30;4.70;;;3.05;;
55913;SDS011;58179;48.776;9.124;2022-08-02T08:13:56;4.60;;;3.40;;
55913;SDS011;58179;48.776;9.124;2022-08-02T08:16:22;4.32;;;3.08;;
55913;SDS011;58179;48.776;9.124;2022-08-02T08:18:50;8.10;;;3.92;;
55913;SDS011;58179;48.776;9.124;2022-08-02T08:21:16;4.75;;;2.92;;
55913;SDS011;58179;48.776;9.124;2022-08-02T08:23:42;7.60;;;3.20;;
55913;SDS011;58179;48.776;9.124;2022-08-02T08:26:09;6.73;;;4.00;;
55913;SDS011;58179;48.776;9.124;2022-08-02T08:28:35;8.38;;;3.50;;
55913;SDS011;58179;48.776;9.124;2022-08-02T08:31:01;4.40;;;3.88;;
55913;SDS011;58179;48.776;9.124;2022-08-02T08:33:27;5.32;;;3.83;;
55913;SDS011;58179;48.776;9.124;2022-08-02T08:35:54;4.83;;;3.37;;
55913;SDS011;58179;48.776;9.124;2022-08-02T08:38:20;6.68;;;3.22;;
55913;SDS011;58179;48.776;9.124;2022-08-02T08:40:47;4.40;;;3.30;;
55913;SDS011;58179;48.776;9.124;2022-08-02T08:43:15;4.80;;;2.93;;
55913;SDS011;58179;48.776;9.124;2022-08-02T08:45:42;4.07;;;3.05;;
55913;SDS011;58179;48.776;9.124;2022-08-02T08:48:09;4.63;;;3.30;;
55913;SDS011;58179;48.776;9.124;2022-08-02T08:50:49;4.55;;;2.90;;
55913;SDS011;58179;48.776;9.124;2022-08-02T08:53:19;4.87;;;2.93;;
55913;SDS011;58179;48.776;9.124;2022-08-02T08:55:48;3.90;;;3.10;;
55913;SDS011;58179;48.776;9.124;2022-08-02T08:58:18;4.47;;;3.40;;
55913;SDS011;58179;48.776;9.124;2022-08-02T09:00:44;5.40;;;3.22;;
55913;SDS011;58179;48.776;9.124;2022-08-02T09:03:11;5.30;;;3.55;;
55913;SDS011;58179;48.776;9.124;2022-08-02T09:05:37;3.72;;;3.33;;
55913;SDS011;58179;48.776;9.124;2022-08-02T09:08:05;3.65;;;3.10;;
55913;SDS011;58179;48.776;9.124;2022-08-02T09:10:33;4.10;;;3.00;;
55913;SDS011;58179;48.776;9.124;2022-08-02T09:13:08;4.25;;;3.47;;
55913;SDS011;58179;48.776;9.124;2022-08-02T09:15:42;3.10;;;2.65;;
55913;SDS011;58179;48.776;9.124;2022-08-02T09:18:10;5.80;;;3.60;;
55913;SDS011;58179;48.776;9.124;2022-08-02T09:20:50;4.97;;;3.60;;
55913;SDS011;58179;48.776;9.124;2022-08-02T09:23:18;5.43;;;3.22;;
55913;SDS011;58179;48.776;9.124;2022-08-02T09:25:54;4.88;;;2.97;;
55913;SDS011;58179;48.776;9.124;2022-08-02T09:28:24;4.50;;;2.90;;
55913;SDS011;58179;48.776;9.124;2022-08-02T09:30:53;4.25;;;3.25;;
55913;SDS011;58179;48.776;9.124;2022-08-02T09:33:25;3.95;;;3.22;;
55913;SDS011;58179;48.776;9.124;2022-08-02T09:35:58;4.70;;;3.22;;
55913;SDS011;58179;48.776;9.124;2022-08-02T09:38:26;5.93;;;3.50;;
55913;SDS011;58179;48.776;9.124;2022-08-02T09:40:52;4.57;;;2.90;;
55913;SDS011;58179;48.776;9.124;2022-08-02T09:43:18;4.32;;;2.90;;
55913;SDS011;58179;48.776;9.124;2022-08-02T09:45:45;5.47;;;3.33;;
55913;SDS011;58179;48.776;9.124;2022-08-02T09:48:12;6.43;;;3.20;;
55913;SDS011;58179;48.776;9.124;2022-08-02T09:50:39;7.57;;;3.85;;
55913;SDS011;58179;48.776;9.124;2022-08-02T09:53:09;5.50;;;3.78;;
55913;SDS011;58179;48.776;9.124;2022-08-02T09:55:37;4.85;;;4.03;;
55913;SDS011;58179;48.776;9.124;2022-08-02T09:58:15;4.40;;;3.50;;
55913;SDS011;58179;48.776;9.124;2022-08-02T10:00:50;4.03;;;3.25;;
55913;SDS011;58179;48.776;9.124;2022-08-02T10:03:20;4.35;;;3.67;;
55913;SDS011;58179;48.776;9.124;2022-08-02T10:05:47;4.05;;;3.15;;
55913;SDS011;58179;48.776;9.124;2022-08-02T10:08:14;5.72;;;3.60;;
55913;SDS011;58179;48.776;9.124;2022-08-02T10:10:41;4.68;;;2.95;;
55913;SDS011;58179;48.776;9.124;2022-08-02T10:13:09;3.88;;;3.15;;
55913;SDS011;58179;48.776;9.124;2022-08-02T10:15:35;7.32;;;3.78;;
55913;SDS011;58179;48.776;9.124;2022-08-02T10:18:02;5.47;;;3.50;;
55913;SDS011;58179;48.776;9.124;2022-08-02T10:20:32;2.97;;;2.70;;
55913;SDS011;58179;48.776;9.124;2022-08-02T10:23:04;8.40;;;4.20;;
55913;SDS011;58179;48.776;9.124;2022-08-02T10:25:32;4.32;;;3.17;;
55913;SDS011;58179;48.776;9.124;2022-08-02T10:28:02;5.90;;;3.10;;
55913;SDS011;58179;48.776;9.124;2022-08-02T10:30:30;4.43;;;3.10;;
55913;SDS011;58179;48.776;9.124;2022-08-02T10:32:57;3.88;;;2.90;;
55913;SDS011;58179;48.776;9.124;2022-08-02T10:35:25;8.75;;;3.50;;
55913;SDS011;58179;48.776;9.124;2022-08-02T10:37:53;4.03;;;3.33;;
55913;SDS011;58179;48.776;9.124;2022-08-02T10:40:25;5.97;;;3.40;;
55913;SDS011;58179;48.776;9.124;2022-08-02T10:43:10;4.43;;;3.28;;
55913;SDS011;58179;48.776;9.124;2022-08-02T10:45:38;3.78;;;2.90;;
55913;SDS011;58179;48.776;9.124;2022-08-02T10:48:06;5.40;;;3.22;;
55913;SDS011;58179;48.776;9.124;2022-08-02T10:50:54;3.55;;;3.00;;
55913;SDS011;58179;48.776;9.124;2022-08-02T10:53:25;3.92;;;2.55;;
55913;SDS011;58179;48.776;9.124;2022-08-02T10:55:53;3.65;;;2.67;;
55913;SDS011;58179;48.776;9.124;2022-08-02T10:58:22;4.78;;;2.70;;
55913;SDS011;58179;48.776;9.124;2022-08-02T11:00:51;3.08;;;2.67;;
55913;SDS011;58179;48.776;9.124;2022-08-02T11:03:34;4.50;;;2.72;;
55913;SDS011;58179;48.776;9.124;2022-08-02T11:06:04;5.45;;;3.00;;
55913;SDS011;58179;48.776;9.124;2022-08-02T11:08:33;4.95;;;2.35;;
55913;SDS011;58179;48.776;9.124;2022-08-02T11:10:59;3.78;;;2.28;;
55913;SDS011;58179;48.776;9.124;2022-08-02T11:19:33;5.75;;;3.70;;
55913;SDS011;58179;48.776;9.124;2022-08-02T11:22:19;4.28;;;3.13;;
55913;SDS011;58179;48.776;9.124;2022-08-02T11:24:47;5.67;;;3.57;;
55913;SDS011;58179;48.776;9.124;2022-08-02T11:27:15;4.65;;;3.35;;
55913;SDS011;58179;48.776;9.124;2022-08-02T11:29:44;6.17;;;3.53;;
55913;SDS011;58179;48.776;9.124;2022-08-02T11:32:14;7.50;;;3.70;;
55913;SDS011;58179;48.776;9.124;2022-08-02T11:34:44;6.22;;;3.50;;
55913;SDS011;58179;48.776;9.124;2022-08-02T11:37:25;5.82;;;3.70;;
55913;SDS011;58179;48.776;9.124;2022-08-02T11:39:53;4.60;;;3.05;;
55913;SDS011;58179;48.776;9.124;2022-08-02T11:42:19;2.83;;;2.50;;
55913;SDS011;58179;48.776;9.124;2022-08-02T11:44:46;5.38;;;2.65;;
55913;SDS011;58179;48.776;9.124;2022-08-02T11:47:13;3.60;;;3.03;;
55913;SDS011;58179;48.776;9.124;2022-08-02T11:49:39;5.83;;;3.03;;
55913;SDS011;58179;48.776;9.124;2022-08-02T11:52:07;3.78;;;2.60;;
55913;SDS011;58179;48.776;9.124;2022-08-02T11:54:35;3.42;;;2.58;;
55913;SDS011;58179;48.776;9.124;2022-08-02T11:57:09;3.00;;;2.35;;
55913;SDS011;58179;48.776;9.124;2022-08-02T11:59:37;3.53;;;2.60;;
55913;SDS011;58179;48.776;9.124;2022-08-02T12:02:04;7.82;;;3.10;;
55913;SDS011;58179;48.776;9.124;2022-08-02T12:04:31;3.13;;;2.53;;
55913;SDS011;58179;48.776;9.124;2022-08-02T12:06:57;2.72;;;2.50;;
55913;SDS011;58179;48.776;9.124;2022-08-02T12:09:25;3.67;;;2.80;;
55913;SDS011;58179;48.776;9.124;2022-08-02T12:11:53;2.85;;;2.58;;
55913;SDS011;58179;48.776;9.124;2022-08-02T12:14:22;4.05;;;3.00;;
55913;SDS011;58179;48.776;9.124;2022-08-02T12:16:50;2.97;;;2.50;;
55913;SDS011;58179;48.776;9.124;2022-08-02T12:19:35;4.10;;;2.60;;
55913;SDS011;58179;48.776;9.124;2022-08-02T12:22:05;4.00;;;2.40;;
55913;SDS011;58179;48.776;9.124;2022-08-02T12:24:41;3.30;;;2.78;;
55913;SDS011;58179;48.776;9.124;2022-08-02T12:27:09;4.30;;;2.75;;
55913;SDS011;58179;48.776;9.124;2022-08-02T12:29:58;3.08;;;2.42;;
55913;SDS011;58179;48.776;9.124;2022-08-02T12:32:26;3.92;;;2.42;;
55913;SDS011;58179;48.776;9.124;2022-08-02T12:35:00;2.95;;;2.60;;
55913;SDS011;58179;48.776;9.124;2022-08-02T12:37:32;4.30;;;2.60;;
55913;SDS011;58179;48.776;9.124;2022-08-02T12:42:49;3.15;;;2.55;;
55913;SDS011;58179;48.776;9.124;2022-08-02T12:45:18;2.60;;;2.40;;
55913;SDS011;58179;48.776;9.124;2022-08-02T12:47:45;4.75;;;2.35;;
55913;SDS011;58179;48.776;9.124;2022-08-02T12:50:14;6.65;;;2.47;;
55913;SDS011;58179;48.776;9.124;2022-08-02T12:52:42;3.35;;;2.78;;
55913;SDS011;58179;48.776;9.124;2022-08-02T12:55:15;4.20;;;2.95;;
55913;SDS011;58179;48.776;9.124;2022-08-02T12:57:50;3.67;;;2.80;;
55913;SDS011;58179;48.776;9.124;2022-08-02T13:00:26;3.80;;;3.00;;
55913;SDS011;58179;48.776;9.124;2022-08-02T13:02:55;5.28;;;2.60;;
55913;SDS011;58179;48.776;9.124;2022-08-02T13:05:21;5.10;;;3.00;;
55913;SDS011;58179;48.776;9.124;2022-08-02T13:07:48;2.83;;;2.30;;
55913;SDS011;58179;48.776;9.124;2022-08-02T13:10:15;4.10;;;2.58;;
55913;SDS011;58179;48.776;9.124;2022-08-02T13:12:41;4.07;;;2.83;;
55913;SDS011;58179;48.776;9.124;2022-08-02T13:15:08;4.03;;;2.60;;
55913;SDS011;58179;48.776;9.124;2022-08-02T13:17:35;4.53;;;2.40;;
55913;SDS011;58179;48.776;9.124;2022-08-02T13:20:02;3.08;;;2.30;;
55913;SDS011;58179;48.776;9.124;2022-08-02T13:22:30;5.70;;;2.50;;
55913;SDS011;58179;48.776;9.124;2022-08-02T13:24:56;2.80;;;2.20;;
55913;SDS011;58179;48.776;9.124;2022-08-02T13:27:22;2.30;;;2.10;;
55913;SDS011;58179;48.776;9.124;2022-08-02T13:29:50;2.93;;;2.60;;
55913;SDS011;58179;48.776;9.124;2022-08-02T13:32:17;2.75;;;2.20;;
55913;SDS011;58179;48.776;9.124;2022-08-02T13:34:46;3.30;;;2.20;;
55913;SDS011;58179;48.776;9.124;2022-08-02T13:37:12;3.33;;;2.17;;
55913;SDS011;58179;48.776;9.124;2022-08-02T13:39:39;3.60;;;2.30;;
55913;SDS011;58179;48.776;9.124;2022-08-02T13:42:05;2.80;;;2.00;;
55913;SDS011;58179;48.776;9.124;2022-08-02T13:44:32;2.70;;;2.50;;
55913;SDS011;58179;48.776;9.124;2022-08-02T13:46:58;2.20;;;2.00;;
55913;SDS011;58179;48.776;9.124;2022-08-02T13:49:25;2.40;;;2.10;;
55913;SDS011;58179;48.776;9.124;2022-08-02T13:51:52;3.25;;;2.20;;
55913;SDS011;58179;48.776;9.124;2022-08-02T13:54:18;4.95;;;2.55;;
55913;SDS011;58179;48.776;9.124;2022-08-02T13:56:44;2.97;;;2.17;;
55913;SDS011;58179;48.776;9.124;2022-08-02T13:59:10;3.03;;;2.17;;
55913;SDS011;58179;48.776;9.124;2022-08-02T14:01:36;5.70;;;2.57;;
55913;SDS011;58179;48.776;9.124;2022-08-02T14:04:02;6.00;;;2.50;;
55913;SDS011;58179;48.776;9.124;2022-08-02T14:06:28;2.38;;;2.15;;
55913;SDS011;58179;48.776;9.124;2022-08-02T14:08:56;4.40;;;2.30;;
55913;SDS011;58179;48.776;9.124;2022-08-02T14:11:22;2.20;;;2.00;;
55913;SDS011;58179;48.776;9.124;2022-08-02T14:13:48;3.03;;;2.20;;
55913;SDS011;58179;48.776;9.124;2022-08-02T14:16:14;3.67;;;2.22;;
55913;SDS011;58179;48.776;9.124;2022-08-02T14:18:40;2.50;;;2.00;;
55913;SDS011;58179;48.776;9.124;2022-08-02T14:21:06;2.73;;;1.90;;
55913;SDS011;58179;48.776;9.124;2022-08-02T14:23:32;3.85;;;2.10;;
55913;SDS011;58179;48.776;9.124;2022-08-02T14:25:59;2.70;;;1.90;;
55913;SDS011;58179;48.776;9.124;2022-08-02T14:28:26;1.80;;;1.60;;
55913;SDS011;58179;48.776;9.124;2022-08-02T14:30:52;3.00;;;2.03;;
55913;SDS011;58179;48.776;9.124;2022-08-02T14:33:18;6.40;;;2.43;;
55913;SDS011;58179;48.776;9.124;2022-08-02T14:35:44;2.80;;;2.03;;
55913;SDS011;58179;48.776;9.124;2022-08-02T14:38:10;2.53;;;1.80;;
55913;SDS011;58179;48.776;9.124;2022-08-02T14:40:36;3.67;;;2.10;;
55913;SDS011;58179;48.776;9.124;2022-08-02T14:43:03;2.47;;;1.95;;
55913;SDS011;58179;48.776;9.124;2022-08-02T14:45:29;3.40;;;2.10;;
55913;SDS011;58179;48.776;9.124;2022-08-02T14:47:56;3.83;;;1.83;;
55913;SDS011;58179;48.776;9.124;2022-08-02T14:50:22;1.97;;;1.80;;
55913;SDS011;58179;48.776;9.124;2022-08-02T14:52:48;3.70;;;2.40;;
55913;SDS011;58179;48.776;9.124;2022-08-02T14:55:15;1.95;;;1.80;;
55913;SDS011;58179;48.776;9.124;2022-08-02T14:57:41;4.88;;;1.65;;
55913;SDS011;58179;48.776;9.124;2022-08-02T15:00:09;6.60;;;2.38;;
55913;SDS011;58179;48.776;9.124;2022-08-02T15:02:36;4.47;;;1.90;;
55913;SDS011;58179;48.776;9.124;2022-08-02T15:05:02;4.35;;;2.20;;